Terminal Aerodrome Forecast
Issued by NWS

Current Version | Previous Version | Graphics & Text | Print | Product List | Glossary On
Versions: 1 2 3 4 5 6 7 8 9 10 11 12 13 14 15 16
000
FTUS41 KPBZ 301614 AAB
TAFHLG
TAF AMD
KHLG 301614Z 3016/3112 21012KT P6SM VCTS BKN040CB
      TEMPO 3016/3018 4SM -TSRA BKN025CB
     FM302200 23005KT P6SM BKN080=

USA.gov is the U.S. government's official web portal to all federal, state and local government web resources and services.